createdAt,value
2017-05-20T00:00:52.483Z,11.54
2017-05-20T00:03:21.508Z,17.40
2017-05-20T00:05:50.459Z,13.50
2017-05-20T00:08:19.761Z,13.56
2017-05-20T00:10:48.764Z,12.94
2017-05-20T00:13:17.768Z,11.78
2017-05-20T00:15:47.129Z,20.12
2017-05-20T00:18:16.093Z,14.44
2017-05-20T00:20:45.109Z,14.80
2017-05-20T00:23:14.419Z,13.74
2017-05-20T00:25:43.484Z,18.12
2017-05-20T00:28:12.458Z,15.66
2017-05-20T00:30:41.777Z,16.96
2017-05-20T00:33:10.858Z,17.12
2017-05-20T00:35:39.815Z,18.22
2017-05-20T00:38:09.182Z,17.38
2017-05-20T00:40:38.133Z,16.80
2017-05-20T00:43:07.138Z,19.18
2017-05-20T00:45:36.465Z,18.64
2017-05-20T00:48:05.434Z,18.08
2017-05-20T00:50:34.386Z,20.60
2017-05-20T00:53:03.783Z,18.16
2017-05-20T00:55:32.746Z,21.08
2017-05-20T00:58:01.732Z,18.24
2017-05-20T01:00:31.083Z,23.14
2017-05-20T01:03:00.063Z,17.32
2017-05-20T01:05:29.095Z,19.06
2017-05-20T01:07:58.514Z,18.04
2017-05-20T01:10:27.633Z,19.50
2017-05-20T01:12:56.600Z,17.98
2017-05-20T01:15:26.012Z,16.14
2017-05-20T01:17:55.004Z,19.10
2017-05-20T01:20:23.952Z,17.54
2017-05-20T01:22:53.403Z,18.22
2017-05-20T01:25:22.364Z,17.38
2017-05-20T01:27:51.324Z,17.34
2017-05-20T01:30:20.689Z,16.16
2017-05-20T01:32:49.655Z,18.90
2017-05-20T01:35:18.680Z,18.04
2017-05-20T01:37:48.064Z,17.04
2017-05-20T01:40:17.034Z,18.46
2017-05-20T01:42:45.969Z,16.02
2017-05-20T01:45:15.242Z,17.18
2017-05-20T01:47:44.184Z,18.62
2017-05-20T01:50:13.144Z,17.48
2017-05-20T01:52:42.541Z,19.88
2017-05-20T01:55:11.581Z,18.30
2017-05-20T01:57:40.535Z,19.68
2017-05-20T02:00:09.910Z,18.62
2017-05-20T02:02:38.910Z,19.88
2017-05-20T02:05:07.899Z,22.76
2017-05-20T02:07:37.208Z,20.20
2017-05-20T02:10:06.188Z,24.66
2017-05-20T02:12:35.192Z,22.44
2017-05-20T02:15:04.583Z,24.62
2017-05-20T02:17:33.722Z,25.34
2017-05-20T02:20:02.698Z,22.24
2017-05-20T02:22:31.692Z,22.20
2017-05-20T02:25:00.667Z,21.30
2017-05-20T02:27:30.054Z,23.68
2017-05-20T02:29:59.027Z,29.34
2017-05-20T02:32:28.031Z,21.58
2017-05-20T02:34:57.018Z,24.52
2017-05-20T02:37:25.993Z,21.16
2017-05-20T02:39:55.440Z,21.98
2017-05-20T02:42:24.381Z,22.26
2017-05-20T02:44:53.375Z,24.46
2017-05-20T02:47:22.707Z,30.08
2017-05-20T02:49:51.653Z,28.42
2017-05-20T02:52:20.614Z,28.72
2017-05-20T02:54:50.111Z,24.72
2017-05-20T02:57:19.077Z,23.18
2017-05-20T02:59:48.033Z,27.12
2017-05-20T03:02:17.428Z,33.42
2017-05-20T03:04:46.405Z,29.92
2017-05-20T03:07:15.350Z,28.94
2017-05-20T03:09:44.658Z,30.00
2017-05-20T03:12:13.649Z,28.52
2017-05-20T03:14:42.627Z,26.68
2017-05-20T03:17:11.614Z,36.22
2017-05-20T03:19:40.579Z,32.82
2017-05-20T03:22:09.567Z,26.46
2017-05-20T03:24:38.564Z,25.82
2017-05-20T03:27:07.550Z,28.58
2017-05-20T03:29:36.908Z,30.18
2017-05-20T03:32:05.868Z,35.92
2017-05-20T03:34:34.878Z,30.78
2017-05-20T03:37:03.883Z,30.28
2017-05-20T03:39:32.862Z,28.98
2017-05-20T03:42:02.268Z,30.52
2017-05-20T03:44:31.366Z,29.90
2017-05-20T03:47:00.352Z,36.64
2017-05-20T03:49:29.348Z,28.12
2017-05-20T03:51:58.312Z,33.62
2017-05-20T03:54:27.638Z,27.62
2017-05-20T03:56:56.589Z,33.14
2017-05-20T03:59:25.556Z,41.00
2017-05-20T04:01:54.533Z,28.64
2017-05-20T04:04:23.505Z,29.22
2017-05-20T04:06:52.815Z,31.98
2017-05-20T04:09:21.035Z,32.00
2017-05-20T04:11:50.001Z,34.58
2017-05-20T04:14:18.982Z,42.60
2017-05-20T04:16:47.962Z,38.10
2017-05-20T04:19:17.357Z,32.92
2017-05-20T04:21:46.309Z,39.96
2017-05-20T04:24:15.255Z,36.20
2017-05-20T04:26:44.224Z,40.14
2017-05-20T04:29:13.258Z,37.34
2017-05-20T04:31:42.592Z,44.70
2017-05-20T04:34:11.551Z,44.28
2017-05-20T04:36:40.518Z,38.30
2017-05-20T04:39:09.572Z,42.32
2017-05-20T04:41:38.636Z,37.68
2017-05-20T04:44:08.043Z,36.22
2017-05-20T04:46:37.037Z,35.90
2017-05-20T04:49:05.998Z,38.64
2017-05-20T04:51:34.974Z,34.44
2017-05-20T04:54:03.936Z,53.38
2017-05-20T04:56:33.261Z,39.74
2017-05-20T04:59:02.233Z,35.98
2017-05-20T05:01:31.204Z,38.32
2017-05-20T05:04:00.179Z,36.30
2017-05-20T05:06:29.191Z,38.10
2017-05-20T05:08:58.638Z,41.14
2017-05-20T05:11:27.616Z,40.98
2017-05-20T05:13:56.585Z,46.48
2017-05-20T05:16:25.573Z,39.18
2017-05-20T05:18:54.567Z,41.32
2017-05-20T05:21:23.899Z,42.88
2017-05-20T05:23:52.871Z,39.28
2017-05-20T05:26:21.074Z,41.10
2017-05-20T05:28:50.081Z,41.44
2017-05-20T05:31:19.068Z,41.98
2017-05-20T05:33:48.382Z,41.94
2017-05-20T05:36:17.365Z,46.12
2017-05-20T05:38:45.545Z,41.14
2017-05-20T05:41:14.533Z,45.24
2017-05-20T05:43:43.499Z,47.10
2017-05-20T05:46:13.015Z,48.46
2017-05-20T05:48:42.031Z,47.62
2017-05-20T05:51:11.046Z,47.84
2017-05-20T05:53:40.914Z,53.64
2017-05-20T05:56:09.893Z,49.18
2017-05-20T05:58:39.264Z,51.16
2017-05-20T06:01:08.231Z,53.76
2017-05-20T06:03:37.211Z,51.04
2017-05-20T06:06:06.204Z,46.70
2017-05-20T06:08:34.443Z,45.90
2017-05-20T06:11:03.861Z,42.36
2017-05-20T06:13:33.270Z,37.72
2017-05-20T06:16:02.241Z,42.86
2017-05-20T06:18:31.215Z,42.68
2017-05-20T06:21:00.170Z,49.62
2017-05-20T06:26:04.386Z,37.50
2017-05-20T06:28:33.849Z,36.24
2017-05-20T06:31:02.797Z,35.46
2017-05-20T06:33:32.469Z,35.94
2017-05-20T06:36:01.471Z,43.64
2017-05-20T06:38:30.422Z,39.98
2017-05-20T06:40:59.727Z,38.14
2017-05-20T06:43:28.693Z,33.06
2017-05-20T06:45:57.660Z,35.64
2017-05-20T06:48:26.637Z,42.84
2017-05-20T06:50:55.603Z,37.92
2017-05-20T06:53:24.204Z,37.52
2017-05-20T06:55:53.202Z,32.90
2017-05-20T06:58:22.191Z,39.34
2017-05-20T07:00:51.309Z,34.64
2017-05-20T07:03:20.292Z,37.22
2017-05-20T07:05:49.758Z,38.00
2017-05-20T07:08:18.016Z,29.64
2017-05-20T07:10:47.093Z,34.16
2017-05-20T07:13:16.116Z,31.60
2017-05-20T07:15:45.099Z,34.84
2017-05-20T07:18:14.511Z,33.96
2017-05-20T07:20:43.575Z,33.02
2017-05-20T07:23:12.559Z,31.44
2017-05-20T07:25:40.786Z,31.22
2017-05-20T07:28:09.795Z,30.54
2017-05-20T07:30:39.188Z,32.14
2017-05-20T07:33:08.164Z,37.34
2017-05-20T07:35:36.445Z,29.36
2017-05-20T07:38:05.445Z,28.04
2017-05-20T07:40:34.985Z,38.04
2017-05-20T07:43:04.333Z,31.58
2017-05-20T07:45:32.601Z,28.26
2017-05-20T07:48:01.650Z,34.86
2017-05-20T07:50:30.665Z,31.66
2017-05-20T07:52:59.681Z,27.94
2017-05-20T07:55:29.089Z,30.46
2017-05-20T07:57:58.090Z,29.80
2017-05-20T08:00:27.063Z,25.38
2017-05-20T08:02:56.087Z,27.56
2017-05-20T08:05:25.113Z,29.92
2017-05-20T08:07:54.564Z,27.94
2017-05-20T08:10:23.651Z,29.32
2017-05-20T08:12:52.621Z,27.00
2017-05-20T08:15:21.643Z,25.36
2017-05-20T08:17:50.632Z,32.16
2017-05-20T08:20:20.059Z,26.68
2017-05-20T08:22:49.066Z,27.54
2017-05-20T08:25:18.068Z,25.34
2017-05-20T08:27:47.097Z,23.10
2017-05-20T08:30:16.083Z,28.90
2017-05-20T08:32:44.684Z,23.20
2017-05-20T08:35:13.653Z,34.30
2017-05-20T08:37:42.638Z,28.60
2017-05-20T08:40:11.659Z,27.80
2017-05-20T08:42:39.860Z,25.18
2017-05-20T08:45:09.238Z,25.10
2017-05-20T08:47:38.277Z,24.02
2017-05-20T08:50:07.348Z,23.90
2017-05-20T08:52:36.352Z,25.34
2017-05-20T08:55:05.345Z,26.20
2017-05-20T08:57:35.963Z,25.14
2017-05-20T09:00:05.005Z,26.68
2017-05-20T09:02:33.993Z,27.20
2017-05-20T09:05:02.977Z,30.68
2017-05-20T09:07:32.085Z,24.90
2017-05-20T09:10:01.526Z,23.38
2017-05-20T09:12:30.524Z,18.80
2017-05-20T09:14:58.755Z,19.64
2017-05-20T09:17:27.782Z,19.24
2017-05-20T09:19:56.736Z,24.60
2017-05-20T09:22:25.704Z,19.78
2017-05-20T09:24:54.696Z,19.88
2017-05-20T09:27:23.833Z,18.62
2017-05-20T09:29:52.875Z,17.42
2017-05-20T09:32:21.863Z,18.18
2017-05-20T09:34:50.423Z,18.20
2017-05-20T09:37:19.382Z,17.12
2017-05-20T09:39:48.393Z,18.60
2017-05-20T09:42:17.399Z,18.40
2017-05-20T09:44:46.487Z,20.78
2017-05-20T09:47:15.829Z,17.76
2017-05-20T09:49:44.864Z,22.54
2017-05-20T09:52:13.845Z,17.12
2017-05-20T09:54:42.853Z,14.20
2017-05-20T09:57:11.864Z,14.56
2017-05-20T09:59:41.282Z,14.42
2017-05-20T10:02:10.229Z,13.28
2017-05-20T10:04:39.207Z,13.96
2017-05-20T10:07:08.242Z,15.02
2017-05-20T10:09:37.309Z,13.60
2017-05-20T10:12:06.724Z,14.16
2017-05-20T10:14:35.734Z,14.84
2017-05-20T10:17:04.732Z,15.48
2017-05-20T10:19:33.779Z,15.28
2017-05-20T10:22:02.790Z,16.36
2017-05-20T10:24:32.096Z,15.30
2017-05-20T10:27:01.057Z,16.78
2017-05-20T10:29:30.018Z,16.66
2017-05-20T10:31:59.035Z,17.42
2017-05-20T10:34:28.046Z,17.36
2017-05-20T10:36:56.742Z,19.14
2017-05-20T10:39:25.719Z,14.98
2017-05-20T10:41:54.804Z,13.24
2017-05-20T10:44:23.810Z,16.74
2017-05-20T10:46:52.806Z,16.44
2017-05-20T10:49:22.240Z,16.44
2017-05-20T10:51:51.282Z,16.10
2017-05-20T10:54:20.252Z,17.88
2017-05-20T10:56:49.283Z,15.00
2017-05-20T10:59:18.341Z,14.70
2017-05-20T11:01:47.722Z,14.96
2017-05-20T11:04:16.727Z,16.80
2017-05-20T11:06:45.723Z,16.74
2017-05-20T11:09:14.712Z,17.84
2017-05-20T11:11:43.707Z,19.02
2017-05-20T11:14:13.090Z,16.58
2017-05-20T11:16:42.078Z,17.08
2017-05-20T11:19:11.361Z,16.98
2017-05-20T11:21:40.374Z,14.86
2017-05-20T11:24:09.362Z,16.28
2017-05-20T11:26:38.690Z,15.98
2017-05-20T11:29:07.650Z,16.36
2017-05-20T11:31:35.882Z,14.82
2017-05-20T11:34:04.883Z,15.20
2017-05-20T11:36:33.886Z,19.30
2017-05-20T11:39:03.309Z,12.74
2017-05-20T11:41:32.276Z,12.84
2017-05-20T11:44:01.252Z,11.38
2017-05-20T11:46:30.252Z,11.68
2017-05-20T11:48:59.246Z,13.72
2017-05-20T11:51:28.559Z,11.62
2017-05-20T11:53:57.527Z,9.12
2017-05-20T11:56:26.497Z,9.28
2017-05-20T11:58:55.515Z,7.56
2017-05-20T12:01:24.486Z,9.18
2017-05-20T12:03:53.843Z,15.66
2017-05-20T12:06:22.804Z,11.36
2017-05-20T12:08:51.753Z,9.30
2017-05-20T12:11:20.727Z,10.76
2017-05-20T12:13:49.480Z,7.94
2017-05-20T12:16:18.880Z,10.34
2017-05-20T12:18:47.837Z,9.16
2017-05-20T12:21:16.833Z,11.04
2017-05-20T12:23:45.806Z,9.18
2017-05-20T12:26:14.794Z,8.58
2017-05-20T12:28:43.801Z,10.34
2017-05-20T12:31:12.811Z,9.08
2017-05-20T12:33:42.133Z,8.92
2017-05-20T12:36:11.178Z,9.46
2017-05-20T12:38:40.142Z,7.70
2017-05-20T12:41:09.171Z,7.16
2017-05-20T12:43:38.190Z,10.90
2017-05-20T12:46:07.702Z,7.78
2017-05-20T12:48:36.696Z,10.74
2017-05-20T12:51:05.672Z,10.06
2017-05-20T12:53:34.280Z,8.18
2017-05-20T12:56:03.287Z,7.36
2017-05-20T12:58:32.339Z,7.02
2017-05-20T13:01:01.324Z,8.08
2017-05-20T13:03:30.331Z,7.08
2017-05-20T13:05:59.654Z,6.48
2017-05-20T13:08:28.615Z,6.14
2017-05-20T13:10:57.658Z,9.82
2017-05-20T13:13:26.658Z,11.26
2017-05-20T13:15:55.644Z,9.18
2017-05-20T13:18:24.965Z,10.60
2017-05-20T13:20:53.979Z,8.32
2017-05-20T13:23:22.971Z,7.12
2017-05-20T13:25:51.959Z,8.28
2017-05-20T13:28:20.921Z,9.26
2017-05-20T13:30:50.302Z,8.86
2017-05-20T13:33:19.331Z,6.92
2017-05-20T13:35:48.373Z,8.08
2017-05-20T13:38:17.415Z,6.74
2017-05-20T13:40:46.471Z,6.44
2017-05-20T13:43:15.914Z,6.24
2017-05-20T13:45:44.876Z,5.58
2017-05-20T13:48:13.852Z,5.98
2017-05-20T13:50:42.834Z,5.74
2017-05-20T13:53:11.794Z,5.14
2017-05-20T13:55:42.019Z,4.86
2017-05-20T13:58:10.984Z,4.96
2017-05-20T14:00:39.963Z,7.26
2017-05-20T14:03:08.970Z,5.42
2017-05-20T14:05:37.958Z,4.80
2017-05-20T14:08:07.409Z,5.32
2017-05-20T14:10:36.353Z,5.70
2017-05-20T14:13:05.297Z,5.18
2017-05-20T14:15:34.279Z,3.50
2017-05-20T14:18:03.248Z,11.70
2017-05-20T14:20:32.580Z,5.40
2017-05-20T14:23:01.543Z,5.06
2017-05-20T14:25:30.512Z,6.96
2017-05-20T14:27:59.499Z,3.02
2017-05-20T14:30:28.500Z,3.00
2017-05-20T14:32:57.859Z,4.98
2017-05-20T14:35:26.070Z,5.36
2017-05-20T14:37:55.029Z,4.44
2017-05-20T14:40:24.134Z,3.80
2017-05-20T14:42:52.333Z,4.86
2017-05-20T14:45:21.091Z,4.72
2017-05-20T14:47:50.053Z,6.10
2017-05-20T14:50:19.003Z,4.98
2017-05-20T14:52:48.012Z,4.04
2017-05-20T14:55:17.002Z,6.10
2017-05-20T14:57:46.367Z,3.70
2017-05-20T15:00:15.348Z,4.26
2017-05-20T15:02:44.305Z,3.68
2017-05-20T15:05:13.412Z,3.50
2017-05-20T15:07:42.384Z,3.34
2017-05-20T15:10:11.814Z,3.56
2017-05-20T15:12:40.764Z,4.32
2017-05-20T15:15:09.746Z,4.16
2017-05-20T15:17:38.742Z,4.58
2017-05-20T15:20:07.731Z,3.42
2017-05-20T15:22:37.153Z,4.06
2017-05-20T15:25:06.112Z,5.18
2017-05-20T15:27:35.094Z,5.26
2017-05-20T15:30:04.060Z,3.98
2017-05-20T15:32:33.021Z,4.76
2017-05-20T15:35:02.338Z,4.10
2017-05-20T15:37:31.296Z,7.32
2017-05-20T15:40:00.249Z,3.96
2017-05-20T15:42:29.244Z,7.86
2017-05-20T15:44:58.202Z,5.60
2017-05-20T15:47:27.578Z,4.04
2017-05-20T15:49:56.539Z,4.20
2017-05-20T15:52:25.605Z,5.58
2017-05-20T15:54:54.599Z,5.44
2017-05-20T15:57:23.553Z,6.84
2017-05-20T15:59:52.882Z,7.46
2017-05-20T16:02:21.842Z,5.34
2017-05-20T16:04:50.781Z,6.16
2017-05-20T16:07:19.735Z,5.88
2017-05-20T16:09:48.728Z,8.76
2017-05-20T16:12:18.004Z,6.60
2017-05-20T16:14:46.972Z,4.56
2017-05-20T16:17:15.923Z,4.12
2017-05-20T16:19:44.892Z,4.36
2017-05-20T16:22:13.855Z,4.92
2017-05-20T16:24:43.223Z,5.88
2017-05-20T16:27:12.176Z,6.08
2017-05-20T16:29:41.135Z,5.32
2017-05-20T16:32:09.386Z,4.78
2017-05-20T16:34:38.358Z,4.30
2017-05-20T16:37:07.663Z,7.54
2017-05-20T16:39:36.638Z,6.22
2017-05-20T16:42:05.638Z,6.70
2017-05-20T16:44:34.683Z,6.56
2017-05-20T16:47:03.647Z,5.24
2017-05-20T16:49:33.066Z,6.82
2017-05-20T16:52:02.039Z,6.20
2017-05-20T16:54:31.028Z,5.24
2017-05-20T16:57:00.003Z,8.22
2017-05-20T16:59:29.133Z,10.18
2017-05-20T17:01:58.510Z,5.06
2017-05-20T17:04:27.535Z,5.12
2017-05-20T17:06:56.494Z,8.42
2017-05-20T17:09:25.518Z,7.76
2017-05-20T17:11:54.521Z,8.42
2017-05-20T17:14:23.910Z,5.18
2017-05-20T17:16:53.858Z,8.18
2017-05-20T17:19:23.633Z,4.18
2017-05-20T17:21:52.599Z,4.70
2017-05-20T17:24:21.558Z,4.88
2017-05-20T17:26:50.511Z,6.48
2017-05-20T17:29:19.482Z,5.26
2017-05-20T17:31:48.897Z,6.12
2017-05-20T17:34:17.873Z,4.36
2017-05-20T17:36:46.921Z,6.36
2017-05-20T17:39:15.871Z,5.58
2017-05-20T17:41:44.876Z,4.24
2017-05-20T17:44:14.261Z,6.54
2017-05-20T17:46:43.221Z,6.02
2017-05-20T17:49:12.192Z,6.34
2017-05-20T17:51:41.289Z,5.02
2017-05-20T17:54:10.279Z,7.18
2017-05-20T17:56:39.617Z,5.68
2017-05-20T17:59:08.654Z,6.50
2017-05-20T18:01:37.639Z,6.30
2017-05-20T18:04:06.627Z,6.88
2017-05-20T18:06:35.674Z,8.16
2017-05-20T18:09:04.986Z,8.98
2017-05-20T18:11:33.923Z,6.58
2017-05-20T18:14:02.906Z,5.32
2017-05-20T18:16:31.895Z,6.48
2017-05-20T18:19:00.872Z,8.58
2017-05-20T18:21:30.175Z,7.08
2017-05-20T18:23:59.151Z,8.04
2017-05-20T18:26:28.151Z,8.22
2017-05-20T18:28:57.170Z,7.04
2017-05-20T18:31:26.142Z,7.82
2017-05-20T18:33:55.445Z,8.06
2017-05-20T18:36:24.410Z,7.72
2017-05-20T18:38:53.351Z,7.38
2017-05-20T18:41:22.327Z,6.70
2017-05-20T18:43:51.354Z,10.88
2017-05-20T18:46:20.673Z,7.48
2017-05-20T18:48:49.635Z,8.00
2017-05-20T18:51:18.629Z,10.02
2017-05-20T18:53:47.640Z,7.24
2017-05-20T18:56:16.587Z,12.28
2017-05-20T18:58:45.853Z,7.42
2017-05-20T19:01:14.899Z,7.90
2017-05-20T19:03:43.923Z,7.62
2017-05-20T19:06:12.921Z,6.76
2017-05-20T19:08:41.884Z,9.90
2017-05-20T19:11:11.191Z,7.44
2017-05-20T19:13:40.177Z,9.32
2017-05-20T19:16:09.170Z,9.90
2017-05-20T19:18:38.186Z,11.22
2017-05-20T19:21:07.233Z,8.80
2017-05-20T19:23:36.605Z,16.12
2017-05-20T19:26:05.602Z,10.10
2017-05-20T19:28:34.614Z,9.68
2017-05-20T19:31:03.565Z,9.96
2017-05-20T19:33:32.583Z,10.22
2017-05-20T19:36:01.959Z,10.56
2017-05-20T19:38:30.948Z,9.08
2017-05-20T19:40:59.916Z,9.62
2017-05-20T19:43:28.964Z,10.30
2017-05-20T19:45:57.917Z,17.02
2017-05-20T19:48:27.350Z,9.34
2017-05-20T19:50:56.490Z,11.28
2017-05-20T19:53:25.465Z,11.26
2017-05-20T19:55:54.530Z,11.74
2017-05-20T19:58:23.529Z,10.60
2017-05-20T20:00:52.907Z,10.10
2017-05-20T20:03:21.871Z,10.84
2017-05-20T20:05:50.828Z,13.22
2017-05-20T20:08:19.845Z,11.60
2017-05-20T20:10:48.833Z,11.86
2017-05-20T20:13:18.239Z,14.20
2017-05-20T20:15:47.223Z,12.04
2017-05-20T20:18:16.212Z,11.98
2017-05-20T20:20:45.198Z,13.42
2017-05-20T20:23:14.264Z,12.38
2017-05-20T20:25:43.729Z,11.16
2017-05-20T20:28:12.741Z,16.14
2017-05-20T20:30:41.798Z,11.44
2017-05-20T20:33:10.791Z,10.62
2017-05-20T20:35:39.792Z,10.62
2017-05-20T20:38:09.226Z,12.76
2017-05-20T20:40:38.178Z,10.16
2017-05-20T20:43:07.148Z,11.48
2017-05-20T20:45:36.109Z,10.70
2017-05-20T20:48:05.055Z,11.46
2017-05-20T20:50:34.409Z,10.18
2017-05-20T20:53:03.353Z,11.58
2017-05-20T20:55:32.328Z,11.52
2017-05-20T20:58:01.312Z,11.88
2017-05-20T21:00:30.285Z,10.96
2017-05-20T21:02:59.638Z,11.08
2017-05-20T21:05:28.669Z,12.58
2017-05-20T21:07:57.669Z,15.60
2017-05-20T21:10:26.939Z,18.88
2017-05-20T21:12:55.923Z,10.78
2017-05-20T21:15:25.409Z,11.72
2017-05-20T21:17:54.415Z,12.14
2017-05-20T21:20:23.391Z,10.98
2017-05-20T21:22:52.387Z,12.96
2017-05-20T21:25:21.408Z,12.36
2017-05-20T21:27:50.796Z,15.84
2017-05-20T21:30:19.854Z,11.74
2017-05-20T21:32:49.674Z,11.14
2017-05-20T21:35:18.656Z,12.14
2017-05-20T21:37:47.657Z,12.94
2017-05-20T21:40:17.015Z,11.88
2017-05-20T21:42:45.990Z,12.44
2017-05-20T21:45:14.953Z,16.02
2017-05-20T21:47:43.188Z,13.36
2017-05-20T21:50:13.215Z,13.08
2017-05-20T21:52:42.571Z,13.22
2017-05-20T21:55:11.529Z,12.70
2017-05-20T21:57:40.478Z,12.86
2017-05-20T22:00:09.594Z,11.82
2017-05-20T22:02:38.567Z,15.20
2017-05-20T22:05:07.895Z,13.34
2017-05-20T22:07:36.847Z,15.00
2017-05-20T22:10:05.834Z,13.54
2017-05-20T22:12:34.817Z,16.66
2017-05-20T22:15:03.822Z,13.98
2017-05-20T22:17:33.172Z,16.96
2017-05-20T22:20:02.129Z,13.92
2017-05-20T22:22:31.091Z,16.06
2017-05-20T22:24:59.328Z,16.34
2017-05-20T22:27:28.334Z,22.42
2017-05-20T22:29:57.679Z,15.22
2017-05-20T22:32:26.674Z,15.68
2017-05-20T22:34:55.648Z,18.52
2017-05-20T22:37:24.636Z,15.50
2017-05-20T22:39:53.579Z,17.02
2017-05-20T22:42:22.901Z,18.30
2017-05-20T22:44:51.891Z,16.56
2017-05-20T22:47:20.881Z,17.14
2017-05-20T22:49:49.877Z,16.66
2017-05-20T22:52:18.844Z,17.02
2017-05-20T22:54:48.234Z,19.58
2017-05-20T22:57:17.299Z,22.22
2017-05-20T22:59:46.279Z,17.00
2017-05-20T23:02:15.316Z,19.36
2017-05-20T23:04:44.299Z,16.78
2017-05-20T23:07:13.048Z,18.88
2017-05-20T23:09:42.020Z,16.80
2017-05-20T23:12:10.962Z,18.88
2017-05-20T23:14:39.983Z,24.00
2017-05-20T23:17:08.959Z,17.22
2017-05-20T23:19:38.293Z,17.90
2017-05-20T23:22:06.791Z,16.98
2017-05-20T23:24:35.881Z,16.60
2017-05-20T23:27:04.869Z,20.66
2017-05-20T23:29:34.022Z,17.64
2017-05-20T23:32:03.434Z,18.90
2017-05-20T23:34:32.406Z,19.88
2017-05-20T23:37:01.435Z,19.42
2017-05-20T23:39:30.449Z,17.68
2017-05-20T23:41:59.417Z,19.30
2017-05-20T23:44:28.752Z,18.72
2017-05-20T23:46:57.720Z,17.96
2017-05-20T23:49:26.720Z,18.38
2017-05-20T23:51:55.729Z,19.88
2017-05-20T23:54:24.694Z,17.66
2017-05-20T23:56:53.993Z,19.28
2017-05-20T23:59:23.363Z,19.76
